TAM3122 SBSP-SBRJ
Flight info
| Callsign | TAM3122 |
|---|---|
| Flight time | 0h 37m |
| Altitude | 25000 |
| Route | NIBRU UZ171 KEVUN |
| Aircraft | A319/M-SDE3FGHIRWY/LB1 |
Departure
| Time | 2026-05-07 14:23 |
|---|---|
| Airport | Congonhas–Deputado Freitas Nobre Airport (SBSP) |
Arrival
| Time | 2026-05-07 15:00 |
|---|---|
| Airport | Santos Dumont Airport (SBRJ) |
| Time | Latitude | Longitude | Altitude | Speed | Heading |
|---|---|---|---|---|---|
| 2026-05-07 14:16 | -23.62814 | -46.65758 | 2601 ft | 0 kts | 238° |
| 2026-05-07 14:17 | -23.62808 | -46.65747 | 2601 ft | 3 kts | 237° |
| 2026-05-07 14:17 | -23.62797 | -46.65731 | 2601 ft | 3 kts | 211° |
| 2026-05-07 14:18 | -23.62780 | -46.65725 | 2601 ft | 2 kts | 148° |
| 2026-05-07 14:18 | -23.62779 | -46.65726 | 2601 ft | 0 kts | 148° |
| 2026-05-07 14:19 | -23.62806 | -46.65707 | 2601 ft | 8 kts | 146° |
| 2026-05-07 14:19 | -23.62845 | -46.65650 | 2602 ft | 10 kts | 106° |
| 2026-05-07 14:20 | -23.62893 | -46.65598 | 2603 ft | 11 kts | 146° |
| 2026-05-07 14:20 | -23.62968 | -46.65545 | 2603 ft | 15 kts | 147° |
| 2026-05-07 14:20 | -23.63071 | -46.65509 | 2602 ft | 16 kts | 158° |
| 2026-05-07 14:20 | -23.63168 | -46.65443 | 2602 ft | 16 kts | 147° |
| 2026-05-07 14:21 | -23.63266 | -46.65374 | 2602 ft | 17 kts | 147° |
| 2026-05-07 14:21 | -23.63367 | -46.65306 | 2602 ft | 17 kts | 147° |
| 2026-05-07 14:21 | -23.63470 | -46.65234 | 2601 ft | 18 kts | 147° |
| 2026-05-07 14:21 | -23.63469 | -46.65134 | 2599 ft | 18 kts | 39° |
| 2026-05-07 14:22 | -23.63416 | -46.65127 | 2602 ft | 0 kts | 326° |
| 2026-05-07 14:22 | -23.63402 | -46.65138 | 2603 ft | 20 kts | 326° |
| 2026-05-07 14:22 | -23.63066 | -46.65370 | 2611 ft | 92 kts | 327° |
| 2026-05-07 14:22 | -23.62341 | -46.65869 | 2612 ft | 151 kts | 329° |
| 2026-05-07 14:23 | -23.61423 | -46.66516 | 3192 ft | 158 kts | 330° |
| 2026-05-07 14:23 | -23.60464 | -46.67088 | 3878 ft | 163 kts | 348° |
| 2026-05-07 14:23 | -23.59294 | -46.66858 | 4164 ft | 191 kts | 30° |
| 2026-05-07 14:23 | -23.58389 | -46.65642 | 4427 ft | 227 kts | 63° |
| 2026-05-07 14:24 | -23.58225 | -46.63813 | 4875 ft | 263 kts | 92° |
| 2026-05-07 14:24 | -23.58527 | -46.61791 | 5674 ft | 275 kts | 97° |
| 2026-05-07 14:24 | -23.58921 | -46.59734 | 6648 ft | 279 kts | 98° |
| 2026-05-07 14:24 | -23.59322 | -46.57655 | 7636 ft | 282 kts | 97° |
| 2026-05-07 14:25 | -23.59712 | -46.55546 | 8607 ft | 285 kts | 98° |
| 2026-05-07 14:25 | -23.60091 | -46.53417 | 9545 ft | 288 kts | 97° |
| 2026-05-07 14:25 | -23.60465 | -46.51256 | 10413 ft | 294 kts | 97° |
| 2026-05-07 14:25 | -23.60729 | -46.48966 | 10727 ft | 315 kts | 87° |
| 2026-05-07 14:26 | -23.60606 | -46.46497 | 10963 ft | 338 kts | 84° |
| 2026-05-07 14:26 | -23.60445 | -46.43854 | 11134 ft | 361 kts | 84° |
| 2026-05-07 14:26 | -23.60283 | -46.41040 | 11250 ft | 383 kts | 85° |
| 2026-05-07 14:26 | -23.60166 | -46.38084 | 11528 ft | 397 kts | 86° |
| 2026-05-07 14:27 | -23.60085 | -46.35057 | 12050 ft | 402 kts | 86° |
| 2026-05-07 14:27 | -23.60018 | -46.31996 | 12647 ft | 405 kts | 87° |
| 2026-05-07 14:27 | -23.59953 | -46.28918 | 13177 ft | 409 kts | 87° |
| 2026-05-07 14:27 | -23.59880 | -46.25799 | 13773 ft | 412 kts | 87° |
| 2026-05-07 14:28 | -23.59797 | -46.22676 | 14266 ft | 415 kts | 87° |
| 2026-05-07 14:28 | -23.59704 | -46.19514 | 14698 ft | 419 kts | 87° |
| 2026-05-07 14:28 | -23.59602 | -46.16331 | 15152 ft | 421 kts | 87° |
| 2026-05-07 14:28 | -23.59533 | -46.14211 | 15430 ft | 423 kts | 87° |
| 2026-05-07 14:29 | -23.59396 | -46.09944 | 15999 ft | 427 kts | 87° |
| 2026-05-07 14:29 | -23.59293 | -46.06698 | 16448 ft | 430 kts | 87° |
| 2026-05-07 14:29 | -23.59189 | -46.03424 | 16837 ft | 434 kts | 87° |
| 2026-05-07 14:29 | -23.59086 | -46.00127 | 17262 ft | 436 kts | 87° |
| 2026-05-07 14:30 | -23.58981 | -45.96808 | 17657 ft | 440 kts | 88° |
| 2026-05-07 14:30 | -23.58909 | -45.94549 | 17920 ft | 442 kts | 87° |
| 2026-05-07 14:30 | -23.58802 | -45.91194 | 18345 ft | 444 kts | 87° |
| 2026-05-07 14:30 | -23.58657 | -45.86723 | 18766 ft | 449 kts | 88° |
| 2026-05-07 14:31 | -23.58583 | -45.84464 | 18980 ft | 451 kts | 87° |
| 2026-05-07 14:31 | -23.58470 | -45.81035 | 19283 ft | 455 kts | 88° |
| 2026-05-07 14:31 | -23.58355 | -45.77577 | 19571 ft | 458 kts | 88° |
| 2026-05-07 14:31 | -23.58241 | -45.74093 | 19880 ft | 461 kts | 88° |
| 2026-05-07 14:32 | -23.58125 | -45.70587 | 20181 ft | 464 kts | 88° |
| 2026-05-07 14:32 | -23.58007 | -45.67057 | 20462 ft | 468 kts | 88° |
| 2026-05-07 14:32 | -23.57884 | -45.63509 | 20737 ft | 471 kts | 88° |
| 2026-05-07 14:32 | -23.57761 | -45.59931 | 21000 ft | 474 kts | 88° |
| 2026-05-07 14:33 | -23.57636 | -45.56328 | 21249 ft | 477 kts | 88° |
| 2026-05-07 14:33 | -23.57509 | -45.52705 | 21524 ft | 480 kts | 88° |
| 2026-05-07 14:33 | -23.57380 | -45.49060 | 21761 ft | 483 kts | 88° |
| 2026-05-07 14:33 | -23.56984 | -45.45416 | 22021 ft | 486 kts | 79° |
| 2026-05-07 14:34 | -23.56239 | -45.41811 | 22241 ft | 489 kts | 77° |
| 2026-05-07 14:34 | -23.55471 | -45.38189 | 22501 ft | 491 kts | 77° |
| 2026-05-07 14:34 | -23.54701 | -45.34555 | 22778 ft | 493 kts | 78° |
| 2026-05-07 14:34 | -23.53927 | -45.30909 | 23033 ft | 495 kts | 78° |
| 2026-05-07 14:35 | -23.53149 | -45.27249 | 23289 ft | 497 kts | 78° |
| 2026-05-07 14:35 | -23.52367 | -45.23574 | 23525 ft | 499 kts | 78° |
| 2026-05-07 14:35 | -23.51582 | -45.19883 | 23748 ft | 501 kts | 78° |
| 2026-05-07 14:35 | -23.50797 | -45.16185 | 23950 ft | 503 kts | 78° |
| 2026-05-07 14:36 | -23.50008 | -45.12465 | 24143 ft | 505 kts | 78° |
| 2026-05-07 14:36 | -23.49213 | -45.08724 | 24342 ft | 507 kts | 78° |
| 2026-05-07 14:36 | -23.48415 | -45.04987 | 24537 ft | 509 kts | 78° |
| 2026-05-07 14:36 | -23.47611 | -45.01229 | 24719 ft | 510 kts | 78° |
| 2026-05-07 14:37 | -23.46803 | -44.97463 | 24955 ft | 511 kts | 78° |
| 2026-05-07 14:37 | -23.45177 | -44.89991 | 25065 ft | 510 kts | 78° |
| 2026-05-07 14:37 | -23.44341 | -44.86241 | 25066 ft | 510 kts | 78° |
| 2026-05-07 14:38 | -23.43500 | -44.82492 | 25061 ft | 510 kts | 77° |
| 2026-05-07 14:38 | -23.42657 | -44.78744 | 25066 ft | 509 kts | 78° |
| 2026-05-07 14:38 | -23.41816 | -44.75005 | 25056 ft | 509 kts | 78° |
| 2026-05-07 14:38 | -23.40979 | -44.71262 | 25057 ft | 509 kts | 78° |
| 2026-05-07 14:39 | -23.40147 | -44.67519 | 25051 ft | 509 kts | 78° |
| 2026-05-07 14:39 | -23.39315 | -44.63776 | 25057 ft | 509 kts | 78° |
| 2026-05-07 14:39 | -23.38481 | -44.60036 | 25025 ft | 506 kts | 78° |
| 2026-05-07 14:39 | -23.37657 | -44.56367 | 24616 ft | 498 kts | 78° |
| 2026-05-07 14:40 | -23.36832 | -44.52697 | 24092 ft | 496 kts | 77° |
| 2026-05-07 14:40 | -23.36017 | -44.49074 | 23151 ft | 490 kts | 77° |
| 2026-05-07 14:40 | -23.35214 | -44.45501 | 22233 ft | 482 kts | 77° |
| 2026-05-07 14:40 | -23.34330 | -44.42014 | 21404 ft | 475 kts | 70° |
| 2026-05-07 14:41 | -23.32999 | -44.38758 | 20604 ft | 468 kts | 66° |
| 2026-05-07 14:41 | -23.31633 | -44.35574 | 19822 ft | 461 kts | 65° |
| 2026-05-07 14:41 | -23.30284 | -44.32442 | 19113 ft | 453 kts | 65° |
| 2026-05-07 14:41 | -23.28960 | -44.29370 | 18442 ft | 445 kts | 65° |
| 2026-05-07 14:42 | -23.27675 | -44.26387 | 17700 ft | 438 kts | 65° |
| 2026-05-07 14:42 | -23.26392 | -44.23410 | 16932 ft | 432 kts | 65° |
| 2026-05-07 14:42 | -23.25125 | -44.20474 | 16177 ft | 427 kts | 65° |
| 2026-05-07 14:42 | -23.23872 | -44.17568 | 15472 ft | 422 kts | 65° |
| 2026-05-07 14:43 | -23.22635 | -44.14699 | 14807 ft | 417 kts | 65° |
| 2026-05-07 14:43 | -23.21409 | -44.11859 | 14148 ft | 413 kts | 65° |
| 2026-05-07 14:43 | -23.20198 | -44.09047 | 13526 ft | 408 kts | 65° |
| 2026-05-07 14:43 | -23.18990 | -44.06274 | 12816 ft | 404 kts | 64° |
| 2026-05-07 14:44 | -23.17758 | -44.03548 | 12110 ft | 399 kts | 62° |
| 2026-05-07 14:44 | -23.16515 | -44.00869 | 11391 ft | 395 kts | 62° |
| 2026-05-07 14:44 | -23.15284 | -43.98222 | 10670 ft | 390 kts | 62° |
| 2026-05-07 14:44 | -23.14109 | -43.95589 | 9947 ft | 386 kts | 62° |
| 2026-05-07 14:45 | -23.12987 | -43.92977 | 9565 ft | 371 kts | 63° |
| 2026-05-07 14:45 | -23.11946 | -43.90501 | 9439 ft | 353 kts | 63° |
| 2026-05-07 14:45 | -23.10943 | -43.88106 | 9310 ft | 346 kts | 63° |
| 2026-05-07 14:45 | -23.09947 | -43.85739 | 9204 ft | 344 kts | 63° |
| 2026-05-07 14:46 | -23.08946 | -43.83382 | 9100 ft | 343 kts | 63° |
| 2026-05-07 14:46 | -23.07995 | -43.81050 | 8940 ft | 343 kts | 68° |
| 2026-05-07 14:46 | -23.07596 | -43.78498 | 8814 ft | 346 kts | 88° |
| 2026-05-07 14:46 | -23.08013 | -43.75919 | 8692 ft | 351 kts | 105° |
| 2026-05-07 14:47 | -23.08780 | -43.73406 | 8569 ft | 350 kts | 106° |
| 2026-05-07 14:47 | -23.09503 | -43.70885 | 8443 ft | 349 kts | 102° |
| 2026-05-07 14:47 | -23.10017 | -43.68316 | 8323 ft | 348 kts | 99° |
| 2026-05-07 14:47 | -23.10519 | -43.65751 | 8203 ft | 347 kts | 99° |
| 2026-05-07 14:48 | -23.11018 | -43.63191 | 8081 ft | 346 kts | 99° |
| 2026-05-07 14:48 | -23.11510 | -43.60642 | 7957 ft | 345 kts | 99° |
| 2026-05-07 14:48 | -23.11999 | -43.58093 | 7838 ft | 344 kts | 99° |
| 2026-05-07 14:48 | -23.12488 | -43.55551 | 7724 ft | 343 kts | 99° |
| 2026-05-07 14:49 | -23.12975 | -43.53012 | 7598 ft | 343 kts | 99° |
| 2026-05-07 14:49 | -23.13460 | -43.50477 | 7480 ft | 342 kts | 99° |
| 2026-05-07 14:49 | -23.13937 | -43.47997 | 7358 ft | 326 kts | 99° |
| 2026-05-07 14:49 | -23.14391 | -43.45649 | 7238 ft | 309 kts | 99° |
| 2026-05-07 14:50 | -23.14823 | -43.43419 | 7120 ft | 294 kts | 99° |
| 2026-05-07 14:50 | -23.15232 | -43.41280 | 7003 ft | 286 kts | 99° |
| 2026-05-07 14:50 | -23.15631 | -43.39173 | 6885 ft | 284 kts | 99° |
| 2026-05-07 14:50 | -23.16030 | -43.37075 | 6766 ft | 283 kts | 99° |
| 2026-05-07 14:51 | -23.16424 | -43.35011 | 6656 ft | 283 kts | 99° |
| 2026-05-07 14:51 | -23.16827 | -43.32893 | 6535 ft | 282 kts | 99° |
| 2026-05-07 14:51 | -23.17218 | -43.30838 | 6422 ft | 281 kts | 99° |
| 2026-05-07 14:51 | -23.17611 | -43.28758 | 6298 ft | 281 kts | 98° |
| 2026-05-07 14:52 | -23.18004 | -43.26682 | 6171 ft | 280 kts | 99° |
| 2026-05-07 14:52 | -23.18396 | -43.24611 | 6055 ft | 279 kts | 99° |
| 2026-05-07 14:52 | -23.18785 | -43.22573 | 5930 ft | 269 kts | 99° |
| 2026-05-07 14:52 | -23.19158 | -43.20637 | 5808 ft | 255 kts | 99° |
| 2026-05-07 14:53 | -23.19512 | -43.18796 | 5682 ft | 243 kts | 98° |
| 2026-05-07 14:53 | -23.19673 | -43.17031 | 5560 ft | 227 kts | 79° |
| 2026-05-07 14:53 | -23.19177 | -43.15478 | 5445 ft | 214 kts | 54° |
| 2026-05-07 14:53 | -23.18156 | -43.14343 | 5321 ft | 209 kts | 30° |
| 2026-05-07 14:54 | -23.16829 | -43.13732 | 5194 ft | 208 kts | 17° |
| 2026-05-07 14:54 | -23.15444 | -43.13243 | 5063 ft | 210 kts | 17° |
| 2026-05-07 14:54 | -23.14058 | -43.12747 | 4812 ft | 209 kts | 17° |
| 2026-05-07 14:54 | -23.12678 | -43.12251 | 4535 ft | 209 kts | 17° |
| 2026-05-07 14:55 | -23.11299 | -43.11753 | 4227 ft | 209 kts | 17° |
| 2026-05-07 14:55 | -23.09942 | -43.11268 | 3955 ft | 200 kts | 15° |
| 2026-05-07 14:55 | -23.08601 | -43.11154 | 3644 ft | 190 kts | 353° |
| 2026-05-07 14:55 | -23.07328 | -43.11389 | 3379 ft | 182 kts | 351° |
| 2026-05-07 14:56 | -23.06107 | -43.11606 | 3116 ft | 174 kts | 351° |
| 2026-05-07 14:56 | -23.04948 | -43.11808 | 2875 ft | 168 kts | 352° |
| 2026-05-07 14:56 | -23.03801 | -43.12008 | 2651 ft | 163 kts | 351° |
| 2026-05-07 14:56 | -23.02706 | -43.12197 | 2419 ft | 159 kts | 351° |
| 2026-05-07 14:57 | -23.01623 | -43.12386 | 2195 ft | 153 kts | 351° |
| 2026-05-07 14:57 | -23.00586 | -43.12571 | 1971 ft | 149 kts | 351° |
| 2026-05-07 14:57 | -22.99581 | -43.12757 | 1768 ft | 144 kts | 351° |
| 2026-05-07 14:57 | -22.98639 | -43.12932 | 1565 ft | 133 kts | 351° |
| 2026-05-07 14:58 | -22.97754 | -43.13096 | 1382 ft | 130 kts | 352° |
| 2026-05-07 14:58 | -22.96909 | -43.13452 | 1151 ft | 131 kts | 331° |
| 2026-05-07 14:58 | -22.96149 | -43.14007 | 980 ft | 132 kts | 327° |
| 2026-05-07 14:58 | -22.95416 | -43.14608 | 842 ft | 132 kts | 324° |
| 2026-05-07 14:59 | -22.94709 | -43.15257 | 627 ft | 133 kts | 321° |
| 2026-05-07 14:59 | -22.94036 | -43.15939 | 468 ft | 132 kts | 324° |
| 2026-05-07 14:59 | -22.93181 | -43.16208 | 318 ft | 130 kts | 0° |
| 2026-05-07 14:59 | -22.92280 | -43.16210 | 163 ft | 129 kts | 359° |
| 2026-05-07 15:00 | -22.91401 | -43.16261 | 27 ft | 118 kts | 358° |
| 2026-05-07 15:00 | -22.90784 | -43.16301 | 26 ft | 48 kts | 356° |
| 2026-05-07 15:00 | -22.90576 | -43.16315 | 25 ft | 27 kts | 356° |
| 2026-05-07 15:00 | -22.90491 | -43.16362 | 24 ft | 14 kts | 277° |
| 2026-05-07 15:01 | -22.90495 | -43.16447 | 23 ft | 11 kts | 265° |
| 2026-05-07 15:01 | -22.90501 | -43.16534 | 22 ft | 12 kts | 262° |
| 2026-05-07 15:01 | -22.90576 | -43.16554 | 25 ft | 13 kts | 176° |
| 2026-05-07 15:01 | -22.90668 | -43.16547 | 22 ft | 14 kts | 176° |
| 2026-05-07 15:02 | -22.90767 | -43.16541 | 25 ft | 15 kts | 176° |
| 2026-05-07 15:02 | -22.90873 | -43.16550 | 22 ft | 16 kts | 176° |
| 2026-05-07 15:02 | -22.90943 | -43.16546 | 24 ft | 7 kts | 196° |
| 2026-05-07 15:02 | -22.90952 | -43.16596 | 22 ft | 7 kts | 268° |
| 2026-05-07 15:03 | -22.90953 | -43.16621 | 22 ft | 0 kts | 266° |